Time;durP1;ratioP1;P1;durP2;ratioP2;P2;SDS_P1;SDS_P2;PMS_P1;PMS_P2;Temp;Humidity;BMP_temperature;BMP_pressure;BME280_temperature;BME280_humidity;BME280_pressure;Samples;Min_cycle;Max_cycle;Signal;HPM_P1;HPM_P2
2022/03/08 00:00:53;;;;;;;3.63;2.88;;;;;;;;;;5028730;28;20025;-78
2022/03/08 00:03:19;;;;;;;8.05;3.15;;;;;;;;;;5025898;28;20743;-78
2022/03/08 00:05:46;;;;;;;6.25;3.72;;;;;;;;;;5022596;28;20478;-77
2022/03/08 00:08:12;;;;;;;3.63;2.88;;;;;;;;;;5026504;28;20045;-78
2022/03/08 00:10:38;;;;;;;5.07;2.75;;;;;;;;;;5027206;28;20028;-77
2022/03/08 00:13:04;;;;;;;10.60;3.90;;;;;;;;;;5024454;28;20033;-77
2022/03/08 00:15:30;;;;;;;9.30;3.25;;;;;;;;;;5022611;28;20489;-75
2022/03/08 00:17:57;;;;;;;7.25;3.22;;;;;;;;;;5031748;28;20509;-78
2022/03/08 00:20:23;;;;;;;2.75;2.40;;;;;;;;;;5026457;28;20029;-75
2022/03/08 00:22:49;;;;;;;2.88;2.40;;;;;;;;;;5025594;28;20028;-76
2022/03/08 00:25:15;;;;;;;3.38;2.50;;;;;;;;;;5023296;28;20549;-79
2022/03/08 00:27:45;;;;;;;4.57;2.90;;;;;;;;;;5027099;28;20021;-78
2022/03/08 00:30:12;;;;;;;3.88;2.67;;;;;;;;;;5027800;28;20029;-78
2022/03/08 00:32:38;;;;;;;5.53;3.10;;;;;;;;;;5026068;28;20103;-77
2022/03/08 00:35:04;;;;;;;3.88;2.88;;;;;;;;;;5022058;28;20584;-77
2022/03/08 00:37:30;;;;;;;6.93;3.90;;;;;;;;;;5017699;28;20032;-77
2022/03/08 00:39:56;;;;;;;5.75;3.88;;;;;;;;;;5023985;28;20049;-79
2022/03/08 00:42:22;;;;;;;4.80;2.60;;;;;;;;;;5026663;28;20033;-77
2022/03/08 00:44:48;;;;;;;5.70;3.60;;;;;;;;;;5018466;28;20029;-77
2022/03/08 00:47:14;;;;;;;5.68;3.60;;;;;;;;;;5026788;28;20036;-77
2022/03/08 00:49:41;;;;;;;4.07;2.67;;;;;;;;;;5022620;28;20041;-78
2022/03/08 00:52:07;;;;;;;8.63;3.47;;;;;;;;;;5019501;28;20117;-77
2022/03/08 00:54:33;;;;;;;4.75;3.45;;;;;;;;;;5025063;28;20068;-77
2022/03/08 00:56:59;;;;;;;2.85;2.53;;;;;;;;;;5020705;28;20044;-79
2022/03/08 00:59:25;;;;;;;5.22;3.50;;;;;;;;;;5026013;28;20041;-79
2022/03/08 01:01:51;;;;;;;3.60;2.25;;;;;;;;;;5022861;28;20104;-77
2022/03/08 01:04:18;;;;;;;6.70;3.63;;;;;;;;;;5024294;28;20116;-77
2022/03/08 01:06:44;;;;;;;4.35;2.58;;;;;;;;;;5018106;28;20040;-78
2022/03/08 01:09:10;;;;;;;4.38;2.20;;;;;;;;;;5021684;28;20025;-78
2022/03/08 01:11:36;;;;;;;4.30;2.25;;;;;;;;;;5023490;28;20104;-80
2022/03/08 01:14:03;;;;;;;16.20;3.10;;;;;;;;;;5020146;28;20025;-77
2022/03/08 01:16:29;;;;;;;4.60;2.92;;;;;;;;;;5021785;28;20028;-75
2022/03/08 01:18:55;;;;;;;4.18;2.92;;;;;;;;;;5026352;28;20037;-76
2022/03/08 01:21:21;;;;;;;3.72;2.72;;;;;;;;;;5019849;28;20029;-79
2022/03/08 01:23:47;;;;;;;10.48;4.38;;;;;;;;;;5019414;28;20027;-80
2022/03/08 01:26:14;;;;;;;9.95;3.63;;;;;;;;;;5027959;28;20474;-80
2022/03/08 01:28:41;;;;;;;4.03;2.95;;;;;;;;;;5016759;28;20492;-76
2022/03/08 01:31:07;;;;;;;4.30;2.38;;;;;;;;;;5026321;28;20108;-78
2022/03/08 01:33:33;;;;;;;5.53;2.83;;;;;;;;;;5026073;28;20061;-79
2022/03/08 01:35:59;;;;;;;5.78;3.67;;;;;;;;;;5028957;28;20060;-77
2022/03/08 01:38:24;;;;;;;4.13;2.55;;;;;;;;;;5025378;28;20037;-76
2022/03/08 01:40:50;;;;;;;4.07;2.53;;;;;;;;;;5021724;28;20053;-77
2022/03/08 01:43:16;;;;;;;3.60;2.60;;;;;;;;;;5019994;28;20034;-78
2022/03/08 01:45:43;;;;;;;5.25;3.33;;;;;;;;;;5023922;28;20088;-80
2022/03/08 01:48:09;;;;;;;4.68;2.30;;;;;;;;;;5024338;28;20401;-79
2022/03/08 01:50:35;;;;;;;8.65;3.00;;;;;;;;;;5023546;28;20108;-80
2022/03/08 01:53:01;;;;;;;5.20;3.22;;;;;;;;;;5021372;28;20065;-81
2022/03/08 01:55:27;;;;;;;4.45;2.45;;;;;;;;;;5021979;28;20037;-80
2022/03/08 01:57:54;;;;;;;7.85;2.95;;;;;;;;;;5020669;28;20025;-80
2022/03/08 02:00:24;;;;;;;5.28;3.55;;;;;;;;;;5023397;28;20424;-78
2022/03/08 02:02:51;;;;;;;5.40;3.15;;;;;;;;;;5027158;28;20017;-76
2022/03/08 02:05:17;;;;;;;5.07;3.20;;;;;;;;;;5022796;28;20029;-78
2022/03/08 02:07:43;;;;;;;6.35;3.50;;;;;;;;;;5024530;28;20390;-78
2022/03/08 02:10:09;;;;;;;6.38;3.58;;;;;;;;;;5027605;28;20642;-77
2022/03/08 02:12:35;;;;;;;8.90;3.30;;;;;;;;;;5025322;28;20023;-78
2022/03/08 02:15:11;;;;;;;2.60;2.08;;;;;;;;;;5031938;28;20021;-77
2022/03/08 02:17:37;;;;;;;6.93;3.55;;;;;;;;;;5021603;28;20025;-77
2022/03/08 02:20:03;;;;;;;5.50;2.50;;;;;;;;;;5021053;28;20397;-77
2022/03/08 02:22:29;;;;;;;3.10;2.75;;;;;;;;;;5023669;28;20021;-77
2022/03/08 02:24:55;;;;;;;4.05;2.30;;;;;;;;;;5031543;28;20037;-76
2022/03/08 02:27:21;;;;;;;9.40;2.70;;;;;;;;;;5026842;28;20028;-77
2022/03/08 02:29:47;;;;;;;3.80;1.98;;;;;;;;;;5030411;28;20033;-79
2022/03/08 02:32:13;;;;;;;6.10;3.47;;;;;;;;;;5025693;28;20470;-78
2022/03/08 02:34:39;;;;;;;5.82;2.83;;;;;;;;;;5028508;28;20031;-78
2022/03/08 02:37:11;;;;;;;10.50;4.15;;;;;;;;;;5022899;28;20048;-78
2022/03/08 02:39:37;;;;;;;12.10;4.07;;;;;;;;;;5030016;28;20033;-79
2022/03/08 02:42:04;;;;;;;4.22;3.40;;;;;;;;;;5022581;28;20025;-79
2022/03/08 02:44:30;;;;;;;4.70;2.60;;;;;;;;;;5023949;28;20053;-81
2022/03/08 02:46:56;;;;;;;5.38;3.22;;;;;;;;;;5029746;28;20433;-78
2022/03/08 02:49:22;;;;;;;5.25;3.20;;;;;;;;;;5026269;28;20145;-83
2022/03/08 02:51:49;;;;;;;3.58;2.33;;;;;;;;;;5021623;28;20488;-78
2022/03/08 02:54:15;;;;;;;4.97;2.40;;;;;;;;;;5024288;28;20040;-81
2022/03/08 02:56:41;;;;;;;8.45;2.95;;;;;;;;;;5025585;28;20884;-79
2022/03/08 02:59:07;;;;;;;3.17;2.38;;;;;;;;;;5032991;28;20045;-80
2022/03/08 03:01:33;;;;;;;6.43;2.88;;;;;;;;;;5036106;28;20029;-82
2022/03/08 03:03:59;;;;;;;6.20;3.22;;;;;;;;;;5023198;28;20603;-78
2022/03/08 03:06:25;;;;;;;4.10;2.88;;;;;;;;;;5023134;28;20057;-79
2022/03/08 03:08:51;;;;;;;5.15;2.58;;;;;;;;;;5025600;28;20133;-79
2022/03/08 03:11:17;;;;;;;2.40;2.20;;;;;;;;;;5025635;28;20486;-78
2022/03/08 03:13:43;;;;;;;7.72;3.35;;;;;;;;;;5019372;28;20083;-78
2022/03/08 03:16:09;;;;;;;5.78;3.17;;;;;;;;;;5032857;28;20113;-81
2022/03/08 03:18:35;;;;;;;8.15;4.07;;;;;;;;;;5026134;28;20251;-79
2022/03/08 03:21:01;;;;;;;5.97;4.07;;;;;;;;;;5026408;28;20030;-80
2022/03/08 03:23:27;;;;;;;3.63;3.10;;;;;;;;;;5024251;28;20481;-80
2022/03/08 03:25:53;;;;;;;3.28;2.55;;;;;;;;;;5027737;28;20017;-78
2022/03/08 03:28:18;;;;;;;7.25;2.80;;;-5.00;99.90;;;;;;5019355;28;20033;-76
2022/03/08 03:30:44;;;;;;;1.88;1.77;;;;;;;;;;5025626;28;20382;-78
2022/03/08 03:33:10;;;;;;;9.50;3.15;;;;;;;;;;5028863;28;20061;-80
2022/03/08 03:35:36;;;;;;;3.67;3.10;;;;;;;;;;5035242;28;20025;-79
2022/03/08 03:38:02;;;;;;;5.07;2.55;;;;;;;;;;5022687;28;20045;-79
2022/03/08 03:40:28;;;;;;;5.00;3.08;;;;;;;;;;5020777;28;20125;-80
2022/03/08 03:42:54;;;;;;;2.55;2.35;;;;;;;;;;5023899;28;20547;-79
2022/03/08 03:45:20;;;;;;;6.30;2.58;;;;;;;;;;5026912;28;20446;-79
2022/03/08 03:47:46;;;;;;;2.95;1.73;;;;;;;;;;5028435;28;20025;-80
2022/03/08 03:50:12;;;;;;;3.30;2.80;;;;;;;;;;5028480;28;20087;-83
2022/03/08 03:52:38;;;;;;;8.05;1.80;;;;;;;;;;5019397;28;20030;-79
2022/03/08 03:55:05;;;;;;;12.38;2.55;;;-5.40;99.90;;;;;;5024413;28;20040;-79
2022/03/08 03:57:31;;;;;;;2.03;1.48;;;;;;;;;;5020774;28;20614;-80
2022/03/08 03:59:57;;;;;;;3.83;2.70;;;;;;;;;;5026466;28;20045;-77
2022/03/08 04:02:23;;;;;;;3.85;2.53;;;;;;;;;;5027757;28;20021;-78
2022/03/08 04:04:49;;;;;;;4.57;2.22;;;;;;;;;;5031462;28;20018;-78
2022/03/08 04:07:15;;;;;;;6.32;2.63;;;;;;;;;;5021323;28;20030;-79
2022/03/08 04:09:41;;;;;;;4.57;3.25;;;;;;;;;;5023659;28;20072;-81
2022/03/08 04:12:07;;;;;;;3.40;1.90;;;;;;;;;;5025497;28;20032;-78
2022/03/08 04:14:33;;;;;;;5.65;2.65;;;;;;;;;;5020364;28;20112;-80
2022/03/08 04:16:59;;;;;;;5.35;2.80;;;;;;;;;;5025775;28;20105;-78
2022/03/08 04:19:25;;;;;;;5.95;2.47;;;;;;;;;;5024792;28;20075;-77
2022/03/08 04:21:51;;;;;;;5.93;2.33;;;;;;;;;;5025585;28;20611;-77
2022/03/08 04:24:17;;;;;;;3.17;1.60;;;;;;;;;;5021868;28;20026;-81
2022/03/08 04:26:43;;;;;;;5.80;2.78;;;;;;;;;;5030353;28;20520;-83
2022/03/08 04:29:09;;;;;;;4.22;3.38;;;;;;;;;;5029085;28;20045;-79
2022/03/08 04:31:35;;;;;;;3.47;3.13;;;;;;;;;;5028329;28;20648;-78
2022/03/08 04:34:01;;;;;;;7.57;2.55;;;;;;;;;;5030729;28;20033;-79
2022/03/08 04:36:27;;;;;;;3.00;2.70;;;;;;;;;;5029981;28;20021;-77
2022/03/08 04:38:53;;;;;;;8.35;1.67;;;;;;;;;;5021868;28;20037;-79
2022/03/08 04:41:19;;;;;;;4.68;2.45;;;;;;;;;;5026671;28;20029;-80
2022/03/08 04:43:46;;;;;;;2.60;2.38;;;;;;;;;;5023199;28;20025;-80
2022/03/08 04:46:12;;;;;;;2.65;2.45;;;;;;;;;;5028199;28;20037;-79
2022/03/08 04:48:38;;;;;;;3.70;2.33;;;;;;;;;;5026600;28;21965;-77
2022/03/08 04:51:04;;;;;;;2.38;2.17;;;;;;;;;;5026109;28;20028;-78
2022/03/08 04:53:30;;;;;;;3.53;2.05;;;;;;;;;;5020788;28;20025;-79
2022/03/08 04:55:56;;;;;;;7.75;2.45;;;;;;;;;;5024141;28;20029;-80
2022/03/08 04:58:22;;;;;;;15.43;4.85;;;;;;;;;;5019737;28;20041;-76
2022/03/08 05:00:48;;;;;;;10.93;4.88;;;;;;;;;;5027363;28;20037;-79
2022/03/08 05:03:14;;;;;;;6.97;5.40;;;;;;;;;;5026223;28;20120;-77
2022/03/08 05:05:40;;;;;;;4.22;2.83;;;;;;;;;;5024369;28;20029;-77
2022/03/08 05:08:07;;;;;;;8.57;4.60;;;;;;;;;;5024460;28;20025;-76
2022/03/08 05:10:33;;;;;;;10.95;5.20;;;;;;;;;;5024394;28;20041;-79
2022/03/08 05:13:00;;;;;;;5.47;4.07;;;;;;;;;;5008590;28;20036;-80
2022/03/08 05:15:26;;;;;;;7.50;2.95;;;;;;;;;;5013517;28;20338;-78
2022/03/08 05:17:51;;;;;;;8.40;5.80;;;;;;;;;;5011538;28;20571;-79
2022/03/08 05:20:17;;;;;;;6.05;2.97;;;;;;;;;;5018025;28;20127;-79
2022/03/08 05:22:43;;;;;;;4.50;3.13;;;;;;;;;;5017001;28;20021;-76
2022/03/08 05:25:10;;;;;;;8.05;3.05;;;-6.00;99.90;;;;;;5017526;28;20521;-78
2022/03/08 05:27:36;;;;;;;9.18;3.65;;;;;;;;;;5009863;28;20036;-77
2022/03/08 05:30:02;;;;;;;2.38;2.17;;;;;;;;;;5011794;28;20508;-84
2022/03/08 05:32:28;;;;;;;6.38;2.40;;;;;;;;;;5005164;28;20039;-81
2022/03/08 05:34:54;;;;;;;2.65;2.03;;;;;;;;;;5001547;28;20298;-82
2022/03/08 05:37:20;;;;;;;2.67;2.25;;;;;;;;;;5004606;28;20437;-81
2022/03/08 05:39:46;;;;;;;4.35;2.47;;;;;;;;;;5003891;28;20093;-82
2022/03/08 05:42:12;;;;;;;3.63;2.53;;;;;;;;;;5011101;28;20026;-78
2022/03/08 05:44:38;;;;;;;3.50;1.40;;;;;;;;;;5020805;28;20030;-82
2022/03/08 05:47:05;;;;;;;4.70;3.83;;;;;;;;;;5022080;28;20522;-81
2022/03/08 05:49:31;;;;;;;4.63;2.70;;;;;;;;;;5028353;28;20025;-82
2022/03/08 05:51:57;;;;;;;6.47;3.08;;;;;;;;;;5025340;28;20038;-84
2022/03/08 05:54:23;;;;;;;4.30;1.90;;;;;;;;;;5029333;28;20033;-81
2022/03/08 05:56:49;;;;;;;5.97;2.17;;;;;;;;;;5024927;28;20132;-81
2022/03/08 05:59:15;;;;;;;4.72;3.03;;;;;;;;;;5028178;28;20100;-82
2022/03/08 06:01:41;;;;;;;2.70;2.50;;;;;;;;;;5025103;28;20474;-81
2022/03/08 06:04:07;;;;;;;6.43;2.97;;;;;;;;;;5030072;28;20033;-81
2022/03/08 06:06:33;;;;;;;2.50;2.30;;;;;;;;;;5028560;28;20136;-81
2022/03/08 06:08:59;;;;;;;5.60;2.88;;;;;;;;;;5021858;28;20389;-84
2022/03/08 06:11:25;;;;;;;5.20;2.40;;;;;;;;;;5016673;28;20056;-80
2022/03/08 06:13:52;;;;;;;2.13;1.92;;;;;;;;;;5016814;28;20025;-81
2022/03/08 06:16:17;;;;;;;8.82;1.73;;;;;;;;;;5033189;28;20030;-82
2022/03/08 06:18:43;;;;;;;3.25;1.90;;;;;;;;;;5027346;28;20100;-80
2022/03/08 06:21:09;;;;;;;11.55;3.95;;;;;;;;;;5028344;28;20059;-82
2022/03/08 06:23:36;;;;;;;7.43;3.22;;;;;;;;;;5021263;28;20310;-80
2022/03/08 06:26:02;;;;;;;3.35;2.17;;;;;;;;;;5024944;28;20696;-82
2022/03/08 06:28:28;;;;;;;8.00;4.00;;;;;;;;;;5020316;28;20044;-79
2022/03/08 06:30:54;;;;;;;4.35;3.25;;;;;;;;;;5034860;28;20025;-80
2022/03/08 06:33:20;;;;;;;4.93;3.40;;;;;;;;;;5027693;28;20021;-83
2022/03/08 06:35:46;;;;;;;3.80;3.47;;;;;;;;;;5021928;28;20745;-80
2022/03/08 06:38:12;;;;;;;3.55;2.80;;;;;;;;;;5027046;28;20045;-80
2022/03/08 06:40:38;;;;;;;7.00;4.05;;;;;;;;;;5024940;28;20303;-83
2022/03/08 06:43:04;;;;;;;9.00;2.50;;;;;;;;;;5022677;28;20025;-80
2022/03/08 06:45:30;;;;;;;8.00;4.75;;;;;;;;;;5026496;28;20039;-84
2022/03/08 06:47:56;;;;;;;5.65;3.28;;;;;;;;;;5027485;28;20044;-80
2022/03/08 06:50:22;;;;;;;7.22;4.97;;;;;;;;;;5020634;28;20033;-80
2022/03/08 06:52:49;;;;;;;9.10;3.58;;;;;;;;;;5018222;28;20148;-83
2022/03/08 06:55:15;;;;;;;5.30;3.08;;;;;;;;;;5029537;28;20037;-79
2022/03/08 06:57:41;;;;;;;8.48;4.03;;;;;;;;;;5018494;28;20049;-81
2022/03/08 07:00:08;;;;;;;3.13;2.83;;;;;;;;;;5019113;28;20072;-81
2022/03/08 07:02:34;;;;;;;9.30;3.17;;;;;;;;;;5025178;28;20112;-81
2022/03/08 07:05:00;;;;;;;6.00;3.42;;;;;;;;;;5026304;28;20112;-81
2022/03/08 07:07:26;;;;;;;3.65;3.00;;;;;;;;;;5021962;28;20059;-84
2022/03/08 07:09:52;;;;;;;8.27;4.38;;;;;;;;;;5022920;28;20541;-79
2022/03/08 07:12:18;;;;;;;6.25;4.82;;;;;;;;;;5016375;28;20029;-79
2022/03/08 07:14:44;;;;;;;4.72;2.90;;;;;;;;;;5011899;28;20055;-79
2022/03/08 07:17:10;;;;;;;6.10;3.67;;;;;;;;;;5011832;28;20033;-79
2022/03/08 07:19:36;;;;;;;8.15;4.28;;;;;;;;;;5019855;28;20057;-78
2022/03/08 07:22:02;;;;;;;3.35;2.97;;;;;;;;;;5020621;28;20018;-82
2022/03/08 07:24:28;;;;;;;9.23;3.85;;;;;;;;;;5020918;28;20080;-78
2022/03/08 07:26:54;;;;;;;5.15;3.78;;;;;;;;;;5014429;28;20029;-80
2022/03/08 07:29:20;;;;;;;9.65;4.57;;;;;;;;;;5023671;28;20105;-80
2022/03/08 07:31:46;;;;;;;6.88;3.63;;;;;;;;;;5024712;28;20201;-78
2022/03/08 07:34:14;;;;;;;7.10;3.15;;;;;;;;;;5023572;28;20032;-80
2022/03/08 07:36:40;;;;;;;9.73;3.88;;;;;;;;;;5020809;28;20053;-82
2022/03/08 07:39:06;;;;;;;6.45;3.20;;;;;;;;;;5017974;28;22799;-84
2022/03/08 07:41:32;;;;;;;6.30;2.70;;;;;;;;;;5019249;28;22201;-81
2022/03/08 07:44:01;;;;;;;4.00;2.55;;;;;;;;;;5021647;28;20025;-78
2022/03/08 07:46:26;;;;;;;6.63;3.20;;;;;;;;;;5023648;28;21188;-81
2022/03/08 07:48:52;;;;;;;5.85;3.33;;;;;;;;;;5023503;28;20033;-79
2022/03/08 07:51:18;;;;;;;13.10;4.15;;;;;;;;;;5020130;28;20501;-79
2022/03/08 07:53:44;;;;;;;7.45;3.92;;;;;;;;;;5022135;28;20030;-78
2022/03/08 07:56:10;;;;;;;12.98;4.63;;;;;;;;;;5016854;28;20037;-80
2022/03/08 07:58:38;;;;;;;9.48;4.07;;;;;;;;;;5023470;28;20033;-81
2022/03/08 08:01:04;;;;;;;6.95;4.55;;;;;;;;;;5016223;28;20053;-81
2022/03/08 08:03:30;;;;;;;8.68;4.32;;;;;;;;;;5023995;28;20421;-84
2022/03/08 08:05:56;;;;;;;8.85;4.40;;;;;;;;;;5023718;28;20112;-80
2022/03/08 08:08:22;;;;;;;5.63;3.22;;;;;;;;;;5024336;28;20043;-84
2022/03/08 08:10:48;;;;;;;8.68;4.75;;;;;;;;;;5018468;28;20025;-83
2022/03/08 08:13:14;;;;;;;13.27;5.18;;;;;;;;;;5018235;28;20034;-81
2022/03/08 08:15:41;;;;;;;16.65;5.53;;;;;;;;;;5026850;28;20020;-81
2022/03/08 08:18:07;;;;;;;11.50;4.57;;;;;;;;;;5023825;28;20501;-82
2022/03/08 08:20:34;;;;;;;11.05;5.55;;;;;;;;;;5025402;28;20128;-83
2022/03/08 08:22:59;;;;;;;22.80;8.00;;;;;;;;;;5030856;28;20032;-83
2022/03/08 08:25:25;;;;;;;18.48;6.18;;;;;;;;;;5019953;28;20128;-84
2022/03/08 08:27:51;;;;;;;12.88;8.13;;;;;;;;;;5019090;28;20037;-83
2022/03/08 08:30:18;;;;;;;11.02;6.18;;;;;;;;;;5018839;28;20052;-81
2022/03/08 08:32:44;;;;;;;11.95;7.10;;;;;;;;;;5024525;28;20105;-81
2022/03/08 08:35:10;;;;;;;8.05;5.15;;;;;;;;;;5021640;28;20083;-82
2022/03/08 08:37:36;;;;;;;7.68;3.35;;;;;;;;;;5022298;28;20020;-81
2022/03/08 08:40:04;;;;;;;7.22;4.78;;;;;;;;;;5017597;28;20033;-80
2022/03/08 08:42:29;;;;;;;6.75;3.55;;;;;;;;;;5025655;28;20050;-84
2022/03/08 08:44:55;;;;;;;12.98;3.28;;;;;;;;;;5018856;28;20761;-84
2022/03/08 08:47:21;;;;;;;5.38;2.78;;;;;;;;;;5026258;28;20021;-86
2022/03/08 08:49:47;;;;;;;5.90;3.35;;;;;;;;;;5021557;28;20026;-82
2022/03/08 08:52:13;;;;;;;3.92;2.33;;;;;;;;;;5017180;28;20575;-82
2022/03/08 08:54:39;;;;;;;6.97;4.45;;;;;;;;;;5042824;28;20029;-83
2022/03/08 08:57:05;;;;;;;5.50;2.10;;;;;;;;;;5042233;28;20040;-85
2022/03/08 08:59:31;;;;;;;4.53;2.60;;;;;;;;;;5041220;28;20037;-82
2022/03/08 09:01:58;;;;;;;5.40;2.15;;;;;;;;;;5044721;28;20028;-82
2022/03/08 09:04:24;;;;;;;3.85;2.03;;;;;;;;;;5042452;28;20546;-82
2022/03/08 09:06:50;;;;;;;3.42;2.00;;;;;;;;;;5039310;28;20029;-83
2022/03/08 09:09:16;;;;;;;3.67;1.92;;;;;;;;;;5045108;28;20191;-83
2022/03/08 09:11:42;;;;;;;3.80;1.70;;;;;;;;;;5040344;28;20047;-85
2022/03/08 09:14:09;;;;;;;5.15;2.17;;;;;;;;;;5038019;28;20037;-85
2022/03/08 09:16:35;;;;;;;5.05;1.67;;;;;;;;;;5043268;28;20025;-82
2022/03/08 09:19:01;;;;;;;3.83;1.92;;;;;;;;;;5041343;28;20301;-85
2022/03/08 09:21:27;;;;;;;4.43;1.70;;;;;;;;;;5041661;28;20023;-85
2022/03/08 09:23:53;;;;;;;3.17;1.77;;;;;;;;;;5043261;28;20033;-84
2022/03/08 09:26:19;;;;;;;3.85;2.00;;;;;;;;;;5038439;28;20610;-85
2022/03/08 09:28:45;;;;;;;5.43;2.42;;;;;;;;;;5039802;28;20033;-82
2022/03/08 09:31:11;;;;;;;3.67;1.83;;;;;;;;;;5043493;28;20025;-82
2022/03/08 09:33:37;;;;;;;4.22;1.98;;;;;;;;;;5050030;28;20044;-84
2022/03/08 09:36:03;;;;;;;4.43;1.30;;;;;;;;;;5044792;28;20028;-81
2022/03/08 09:38:29;;;;;;;7.28;2.42;;;;;;;;;;5047112;28;20495;-85
2022/03/08 09:40:55;;;;;;;4.53;2.33;;;;;;;;;;5041819;28;20108;-81
2022/03/08 09:43:21;;;;;;;5.68;1.88;;;;;;;;;;5039776;28;20033;-82
2022/03/08 09:45:47;;;;;;;2.70;1.38;;;;;;;;;;5049120;28;20134;-82
2022/03/08 09:48:13;;;;;;;6.18;1.65;;;;;;;;;;5048309;28;20028;-82
2022/03/08 09:50:39;;;;;;;3.83;1.52;;;;;;;;;;5038549;28;20029;-81
2022/03/08 09:53:05;;;;;;;7.07;1.48;;;;;;;;;;5036052;28;22340;-82
2022/03/08 09:55:31;;;;;;;3.65;1.52;;;;;;;;;;5045025;28;20037;-80
2022/03/08 09:57:57;;;;;;;2.63;1.30;;;;;;;;;;5041244;28;20029;-80
2022/03/08 10:00:24;;;;;;;2.55;1.20;;;;;;;;;;5045937;28;20037;-82
2022/03/08 10:02:55;;;;;;;6.05;1.92;;;;;;;;;;5046318;28;20638;-81
2022/03/08 10:05:22;;;;;;;6.15;1.95;;;;;;;;;;5038549;28;20028;-82
2022/03/08 10:08:08;;;;;;;6.90;1.25;;;;;;;;;;5042144;28;20112;-80
2022/03/08 10:10:42;;;;;;;2.83;1.17;;;;;;;;;;5029232;28;20031;-81
2022/03/08 10:13:10;;;;;;;5.20;1.23;;;;;;;;;;5035882;28;20485;-80
2022/03/08 10:15:36;;;;;;;4.07;1.88;;;;;;;;;;5038095;28;20094;-82
2022/03/08 10:18:02;;;;;;;3.33;1.42;;;;;;;;;;5038765;28;20378;-88
2022/03/08 10:20:31;;;;;;;3.47;2.10;;;;;;;;;;5032827;28;20044;-81
2022/03/08 10:22:57;;;;;;;1.70;1.35;;;;;;;;;;5036406;28;20037;-82
2022/03/08 10:25:25;;;;;;;5.20;1.45;;;;;;;;;;5043237;28;20055;-81
2022/03/08 10:27:51;;;;;;;1.42;1.13;;;;;;;;;;5040419;28;20091;-82
2022/03/08 10:30:17;;;;;;;2.03;1.60;;;;;;;;;;5045777;28;20063;-83
2022/03/08 10:32:42;;;;;;;2.42;1.05;;;;;;;;;;5049590;28;20423;-84
2022/03/08 10:35:10;;;;;;;5.35;1.75;;;;;;;;;;5037234;28;20028;-82
2022/03/08 10:37:37;;;;;;;2.80;0.93;;;;;;;;;;5046606;28;20037;-82
2022/03/08 10:40:05;;;;;;;6.03;1.52;;;;;;;;;;5045049;28;20036;-81
2022/03/08 10:42:33;;;;;;;2.88;1.20;;;;;;;;;;5042880;28;20544;-81
2022/03/08 10:45:07;;;;;;;6.35;1.15;;;;;;;;;;5037827;28;20612;-82
2022/03/08 10:47:45;;;;;;;4.40;1.33;;;;;;;;;;5046661;28;20028;-79
2022/03/08 10:50:12;;;;;;;1.73;1.17;;;;;;;;;;5048988;28;20040;-82
2022/03/08 10:52:39;;;;;;;3.42;1.55;;;;;;;;;;5040217;28;20112;-81
2022/03/08 10:55:21;;;;;;;2.58;1.30;;;;;;;;;;5042473;28;20032;-81
2022/03/08 10:57:50;;;;;;;3.15;1.58;;;;;;;;;;5041302;28;20025;-83
2022/03/08 11:00:16;;;;;;;1.20;0.95;;;;;;;;;;5043387;28;20064;-82
2022/03/08 11:02:50;;;;;;;2.70;1.00;;;;;;;;;;5039361;28;20039;-81
2022/03/08 11:05:16;;;;;;;4.00;1.63;;;;;;;;;;5047082;28;20486;-82
2022/03/08 11:07:42;;;;;;;4.25;1.27;;;;;;;;;;5034764;28;20381;-81
2022/03/08 11:10:11;;;;;;;2.17;1.20;;;7.90;73.20;;;;;;5048053;28;20029;-81
2022/03/08 11:12:37;;;;;;;3.42;1.10;;;;;;;;;;5042474;28;20043;-81
2022/03/08 11:15:04;;;;;;;4.53;1.65;;;;;;;;;;5036801;28;20032;-81
2022/03/08 11:17:31;;;;;;;4.82;0.90;;;;;;;;;;5046146;28;20036;-81
2022/03/08 11:19:57;;;;;;;3.17;0.90;;;;;;;;;;5041433;28;20045;-81
2022/03/08 11:22:23;;;;;;;2.67;1.08;;;;;;;;;;5026693;28;20036;-81
2022/03/08 11:24:50;;;;;;;1.67;0.95;;;;;;;;;;5042616;28;20033;-81
2022/03/08 11:27:16;;;;;;;6.90;2.35;;;;;;;;;;5043286;28;20052;-81
2022/03/08 11:29:43;;;;;;;3.17;1.08;;;;;;;;;;5046607;28;20532;-81
2022/03/08 11:32:13;;;;;;;2.47;1.20;;;;;;;;;;5050704;28;20115;-80
2022/03/08 11:34:42;;;;;;;3.78;1.27;;;;;;;;;;5038885;28;20033;-80
2022/03/08 11:37:13;;;;;;;2.78;1.20;;;;;;;;;;5035846;28;20086;-80
2022/03/08 11:39:43;;;;;;;2.35;1.27;;;;;;;;;;5045377;28;20138;-81
2022/03/08 11:42:18;;;;;;;2.30;0.98;;;;;;;;;;5043736;28;20030;-81
2022/03/08 11:44:55;;;;;;;4.40;1.33;;;;;;;;;;5040960;28;20033;-80
2022/03/08 11:47:21;;;;;;;1.60;0.90;;;;;;;;;;5046140;28;20057;-83
2022/03/08 11:49:54;;;;;;;2.08;1.15;;;;;;;;;;5046304;28;20049;-81
2022/03/08 11:52:26;;;;;;;3.67;1.38;;;;;;;;;;5039978;28;20021;-82
2022/03/08 11:55:03;;;;;;;3.75;1.25;;;8.50;70.00;;;;;;5037886;28;20036;-81
2022/03/08 11:57:44;;;;;;;3.58;1.33;;;;;;;;;;5041410;28;20068;-80
2022/03/08 12:00:19;;;;;;;7.32;1.90;;;;;;;;;;5043760;28;20073;-82
2022/03/08 12:02:51;;;;;;;4.32;1.55;;;;;;;;;;5049710;28;20037;-84
2022/03/08 12:05:35;;;;;;;2.83;0.88;;;;;;;;;;5044205;28;20055;-82
2022/03/08 12:08:20;;;;;;;2.78;1.27;;;;;;;;;;5047685;28;20060;-82
2022/03/08 12:10:47;;;;;;;3.35;1.27;;;;;;;;;;5042060;28;20029;-81
2022/03/08 12:13:14;;;;;;;3.38;1.27;;;8.50;71.00;;;;;;5040908;28;20044;-80
2022/03/08 12:15:59;;;;;;;4.45;1.30;;;;;;;;;;5045169;28;20055;-81
2022/03/08 12:18:33;;;;;;;5.97;1.80;;;8.50;72.00;;;;;;5043107;28;20032;-79
2022/03/08 12:21:27;;;;;;;3.30;1.98;;;;;;;;;;5043989;28;20029;-82
2022/03/08 12:23:59;;;;;;;3.25;1.50;;;;;;;;;;5041860;28;20152;-81
2022/03/08 12:26:25;;;;;;;3.88;1.92;;;;;;;;;;5039970;28;20058;-85
2022/03/08 12:29:11;;;;;;;2.63;1.60;;;;;;;;;;5039831;28;22793;-82
2022/03/08 12:31:55;;;;;;;2.80;1.50;;;;;;;;;;5040676;28;20028;-81
2022/03/08 12:34:47;;;;;;;3.08;1.50;;;;;;;;;;5038715;28;20551;-80
2022/03/08 12:37:18;;;;;;;3.55;1.30;;;;;;;;;;5031388;28;20416;-81
2022/03/08 12:39:46;;;;;;;2.78;1.13;;;;;;;;;;5034324;28;20079;-81
2022/03/08 12:42:36;;;;;;;2.63;1.30;;;;;;;;;;5038257;28;20040;-81
2022/03/08 12:45:19;;;;;;;2.90;1.30;;;;;;;;;;5012615;28;20049;-83
2022/03/08 12:47:47;;;;;;;2.78;1.55;;;;;;;;;;5041353;28;20558;-83
2022/03/08 12:50:18;;;;;;;2.70;1.35;;;;;;;;;;5038326;28;20040;-83
2022/03/08 12:52:54;;;;;;;3.85;1.27;;;;;;;;;;5036220;28;20448;-81
2022/03/08 12:55:21;;;;;;;5.95;1.88;;;;;;;;;;5040581;28;20168;-81
2022/03/08 12:57:55;;;;;;;3.08;1.27;;;;;;;;;;5044291;28;20163;-80
2022/03/08 13:00:29;;;;;;;2.08;1.13;;;;;;;;;;5043438;28;20045;-80
2022/03/08 13:02:55;;;;;;;3.80;1.50;;;;;;;;;;5040246;28;20036;-76
2022/03/08 13:05:26;;;;;;;5.43;1.63;;;;;;;;;;5034933;28;20021;-81
2022/03/08 13:07:52;;;;;;;3.78;1.50;;;;;;;;;;5045427;28;20028;-81
2022/03/08 13:10:20;;;;;;;6.07;1.17;;;;;;;;;;5042000;28;20032;-81
2022/03/08 13:12:52;;;;;;;5.25;2.03;;;;;;;;;;5037085;28;20612;-81
2022/03/08 13:15:22;;;;;;;3.92;1.30;;;;;;;;;;5035127;28;20475;-82
2022/03/08 13:17:49;;;;;;;2.72;1.35;;;;;;;;;;5044936;28;20102;-81
2022/03/08 13:20:30;;;;;;;2.97;1.23;;;;;;;;;;5046160;28;20500;-81
2022/03/08 13:22:57;;;;;;;2.10;1.25;;;;;;;;;;5043313;28;20070;-83
2022/03/08 13:25:23;;;;;;;2.50;1.13;;;;;;;;;;5045499;28;20029;-81
2022/03/08 13:28:02;;;;;;;3.17;1.65;;;9.00;66.40;;;;;;5042099;28;20817;-80
2022/03/08 13:30:30;;;;;;;3.22;1.45;;;;;;;;;;5042777;28;20020;-81
2022/03/08 13:33:08;;;;;;;2.03;1.20;;;;;;;;;;5047155;28;20028;-82
2022/03/08 13:35:35;;;;;;;3.70;1.80;;;8.70;65.10;;;;;;5040504;28;22032;-81
2022/03/08 13:38:01;;;;;;;1.90;0.98;;;;;;;;;;5041470;28;20432;-80
2022/03/08 13:40:28;;;;;;;3.15;1.88;;;;;;;;;;5042118;28;20123;-81
2022/03/08 13:42:57;;;;;;;2.83;1.35;;;9.20;66.70;;;;;;5039595;28;20021;-82
2022/03/08 13:45:23;;;;;;;2.00;1.15;;;;;;;;;;5039258;28;20029;-80
2022/03/08 13:47:52;;;;;;;2.70;1.33;;;;;;;;;;5041945;28;20037;-80
2022/03/08 13:50:19;;;;;;;2.55;1.35;;;;;;;;;;5041791;28;20094;-81
2022/03/08 13:52:51;;;;;;;1.85;1.10;;;;;;;;;;5036033;28;20028;-81
2022/03/08 13:55:17;;;;;;;5.13;1.58;;;;;;;;;;5041581;28;20029;-82
2022/03/08 13:57:53;;;;;;;4.45;1.67;;;;;;;;;;5038546;28;20180;-81
2022/03/08 14:00:19;;;;;;;6.03;1.15;;;;;;;;;;5040010;28;20504;-81
2022/03/08 14:02:45;;;;;;;2.67;1.30;;;;;;;;;;5042431;28;20013;-80
2022/03/08 14:05:11;;;;;;;3.90;1.60;;;;;;;;;;5049301;28;20033;-81
2022/03/08 14:07:37;;;;;;;2.22;1.30;;;;;;;;;;5041945;28;20388;-80
2022/03/08 14:10:04;;;;;;;3.30;1.52;;;;;;;;;;5051325;28;20025;-80
2022/03/08 14:12:46;;;;;;;4.65;1.88;;;;;;;;;;5043884;28;20076;-81
2022/03/08 14:15:12;;;;;;;3.10;1.00;;;;;;;;;;5048183;28;20025;-80
2022/03/08 14:17:39;;;;;;;4.32;1.42;;;;;;;;;;5043203;28;20025;-82
2022/03/08 14:20:19;;;;;;;1.95;1.02;;;;;;;;;;5044720;28;20397;-80
2022/03/08 14:23:05;;;;;;;3.80;1.40;;;;;;;;;;5043171;28;20033;-80
2022/03/08 14:25:31;;;;;;;2.35;0.90;;;;;;;;;;5052963;28;20033;-81
2022/03/08 14:27:57;;;;;;;3.03;1.48;;;;;;;;;;5044820;28;20049;-81
2022/03/08 14:30:24;;;;;;;3.60;1.08;;;;;;;;;;5042919;28;20033;-81
2022/03/08 14:32:51;;;;;;;2.10;1.23;;;;;;;;;;5048057;28;20029;-80
2022/03/08 14:35:18;;;;;;;2.08;1.20;;;;;;;;;;5046384;28;20061;-80
2022/03/08 14:37:44;;;;;;;3.42;1.38;;;;;;;;;;5043633;28;20033;-81
2022/03/08 14:40:11;;;;;;;4.22;1.67;;;;;;;;;;5049450;28;20048;-80